Ajax, Louisiana
Current Conditions -  °F | °C
As of 5:55 PM on Friday 28 Nov 2014 (Local Time) from KIER Reporting Station
Clear Clear  
Wind Chill: 13°   Ceiling: Unl
Heat Index: 13°   Visibility: 10mi
Dew Point:   Wind: 8mph
Humidity: 73%   Direction: 160°SSE
Pressure: 30.19"   Gusts: NA
Location:  31.7926°N, 93.4001°W
Report Text: KIER 282355Z AUTO 16007KT 10SM CLR 13/08 A3019 RMK AO2 T01250078 10195 20122
Loading
Personal Weather Stations






























Interactive Weather Map New forecast layout! Learn more

10-Day Weather Forecast

Advertisements
Track Severe Weather on mobile